createdAt,value
2023-05-19T00:00:14.779Z,100828.13
2023-05-19T00:02:44.141Z,100828.97
2023-05-19T00:05:15.176Z,100827.28
2023-05-19T00:07:45.036Z,100827.28
2023-05-19T00:10:16.210Z,100826.41
2023-05-19T00:12:47.811Z,100824.72
2023-05-19T00:15:16.741Z,100820.16
2023-05-19T00:17:44.949Z,100823.84
2023-05-19T00:20:14.428Z,100824.81
2023-05-19T00:22:44.105Z,100827.50
2023-05-19T00:25:12.330Z,100823.00
2023-05-19T00:27:41.825Z,100832.06
2023-05-19T00:30:10.755Z,100821.25
2023-05-19T00:32:38.949Z,100820.41
2023-05-19T00:35:10.432Z,100815.00
2023-05-19T00:37:39.078Z,100807.00
2023-05-19T00:40:10.799Z,100807.84
2023-05-19T00:42:47.449Z,100816.94
2023-05-19T00:45:15.883Z,100806.13
2023-05-19T00:47:44.207Z,100810.69
2023-05-19T00:50:13.448Z,100807.97
2023-05-19T00:52:41.659Z,100808.13
2023-05-19T00:55:11.722Z,100805.41
2023-05-19T00:57:41.286Z,100802.72
2023-05-19T01:00:11.312Z,100806.28
2023-05-19T01:02:40.013Z,100801.00
2023-05-19T01:05:12.562Z,100807.25
2023-05-19T01:07:42.280Z,100812.81
2023-05-19T01:10:11.258Z,100803.72
2023-05-19T01:12:42.950Z,100803.84
2023-05-19T01:15:15.028Z,100802.97
2023-05-19T01:17:50.662Z,100802.97
2023-05-19T01:20:26.147Z,100797.59
2023-05-19T01:23:36.741Z,100801.28
2023-05-19T01:26:43.686Z,100803.97
2023-05-19T01:29:43.346Z,100799.56
2023-05-19T01:32:15.725Z,100808.53
2023-05-19T01:34:47.580Z,100813.06
2023-05-19T01:37:17.398Z,100798.72
2023-05-19T01:39:46.292Z,100801.50
2023-05-19T01:42:16.779Z,100796.97
2023-05-19T01:44:48.488Z,100795.25
2023-05-19T01:47:18.452Z,100789.00
2023-05-19T01:49:48.277Z,100790.00
2023-05-19T01:52:16.781Z,100793.53
2023-05-19T01:54:45.117Z,100795.38
2023-05-19T01:57:21.214Z,100798.09
2023-05-19T02:00:00.710Z,100795.38
2023-05-19T02:02:44.713Z,100795.53
2023-05-19T02:05:21.776Z,100794.66
2023-05-19T02:07:59.819Z,100797.38
2023-05-19T02:10:31.938Z,100798.38
2023-05-19T02:13:05.683Z,100801.06
2023-05-19T02:15:39.322Z,100793.94
2023-05-19T02:18:11.563Z,100802.06
2023-05-19T02:20:43.461Z,100802.06
2023-05-19T02:23:18.947Z,100798.50
2023-05-19T02:25:50.199Z,100794.94
2023-05-19T02:28:19.133Z,100795.94
2023-05-19T02:30:47.289Z,100804.03
2023-05-19T02:33:17.412Z,100805.75
2023-05-19T02:35:45.749Z,100800.47
2023-05-19T02:38:13.933Z,100809.44
2023-05-19T02:40:42.062Z,100805.00
2023-05-19T02:43:13.284Z,100802.28
2023-05-19T02:45:43.870Z,100797.88
2023-05-19T02:48:12.454Z,100797.88
2023-05-19T02:50:43.024Z,100797.03
2023-05-19T02:53:11.194Z,100794.31
2023-05-19T02:55:41.721Z,100791.63
2023-05-19T02:58:09.822Z,100796.16
2023-05-19T03:00:38.262Z,100793.47
2023-05-19T03:03:06.522Z,100792.59
2023-05-19T03:05:35.054Z,100790.91
2023-05-19T03:08:04.795Z,100801.69
2023-05-19T03:10:33.083Z,100793.72
2023-05-19T03:13:03.745Z,100793.72
2023-05-19T03:15:34.346Z,100801.84
2023-05-19T03:18:02.471Z,100800.97
2023-05-19T03:20:31.692Z,100806.38
2023-05-19T03:23:01.409Z,100809.94
2023-05-19T03:25:31.938Z,100807.38
2023-05-19T03:28:01.620Z,100813.63
2023-05-19T03:30:29.812Z,100811.91
2023-05-19T03:32:58.103Z,100810.22
2023-05-19T03:35:35.172Z,100811.91
2023-05-19T03:38:03.291Z,100810.22
2023-05-19T03:40:32.928Z,100803.94
2023-05-19T03:43:02.027Z,100796.69
2023-05-19T03:45:30.179Z,100809.34
2023-05-19T03:48:02.362Z,100803.09
2023-05-19T03:50:31.744Z,100803.09
2023-05-19T03:53:00.223Z,100808.50
2023-05-19T03:55:32.764Z,100808.50
2023-05-19T03:58:00.818Z,100809.44
2023-05-19T04:00:28.967Z,100813.91
2023-05-19T04:03:00.294Z,100812.16
2023-05-19T04:05:28.793Z,100812.16
2023-05-19T04:07:56.832Z,100812.16
2023-05-19T04:10:24.951Z,100809.44
2023-05-19T04:12:54.421Z,100811.28
2023-05-19T04:15:22.646Z,100814.84
2023-05-19T04:17:50.893Z,100812.16
2023-05-19T04:20:19.587Z,100822.94
2023-05-19T04:22:47.673Z,100824.81
2023-05-19T04:25:15.886Z,100822.94
2023-05-19T04:27:45.057Z,100831.06
2023-05-19T04:30:18.636Z,100825.66
2023-05-19T04:32:46.938Z,100833.75
2023-05-19T04:35:24.669Z,100830.19
2023-05-19T04:37:54.400Z,100837.31
2023-05-19T04:40:26.626Z,100836.47
2023-05-19T04:42:57.358Z,100847.16
2023-05-19T04:45:26.971Z,100845.41
2023-05-19T04:47:57.895Z,100846.31
2023-05-19T04:50:26.245Z,100847.16
2023-05-19T04:52:54.343Z,100850.72
2023-05-19T04:55:23.096Z,100848.00
2023-05-19T04:57:52.422Z,100848.00
2023-05-19T05:00:22.130Z,100849.72
2023-05-19T05:02:51.894Z,100848.88
2023-05-19T05:05:20.322Z,100846.03
2023-05-19T05:07:49.494Z,100856.84
2023-05-19T05:10:17.623Z,100855.00
2023-05-19T05:12:46.831Z,100860.25
2023-05-19T05:15:15.608Z,100854.88
2023-05-19T05:17:45.642Z,100854.88
2023-05-19T05:20:19.567Z,100859.28
2023-05-19T05:22:48.433Z,100867.38
2023-05-19T05:25:18.475Z,100869.09
2023-05-19T05:27:52.524Z,100871.78
2023-05-19T05:30:23.653Z,100867.25
2023-05-19T05:32:51.905Z,100869.81
2023-05-19T05:35:24.739Z,100856.31
2023-05-19T05:37:52.823Z,100856.22
2023-05-19T05:40:23.750Z,100867.88
2023-05-19T05:42:52.155Z,100863.31
2023-05-19T05:45:20.298Z,100861.47
2023-05-19T05:47:49.298Z,100860.34
2023-05-19T05:50:19.589Z,100854.94
2023-05-19T05:52:50.136Z,100862.91
2023-05-19T05:55:20.368Z,100864.75
2023-05-19T05:57:48.815Z,100865.50
2023-05-19T06:00:17.987Z,100866.34
2023-05-19T06:02:47.599Z,100867.19
2023-05-19T06:05:18.930Z,100865.25
2023-05-19T06:07:51.390Z,100867.97
2023-05-19T06:10:19.569Z,100866.09
2023-05-19T06:12:50.561Z,100873.22
2023-05-19T06:15:18.756Z,100874.94
2023-05-19T06:17:46.872Z,100876.66
2023-05-19T06:20:15.267Z,100873.81
2023-05-19T06:22:43.351Z,100874.66
2023-05-19T06:25:13.459Z,100880.94
2023-05-19T06:27:41.747Z,100882.63
2023-05-19T06:30:13.676Z,100888.91
2023-05-19T06:32:41.782Z,100879.84
2023-05-19T06:35:10.290Z,100897.75
2023-05-19T06:37:38.903Z,100894.97
2023-05-19T06:40:08.391Z,100899.50
2023-05-19T06:42:38.252Z,100900.22
2023-05-19T06:45:08.514Z,100908.34
2023-05-19T06:47:36.849Z,100910.91
2023-05-19T06:50:05.418Z,100903.66
2023-05-19T06:52:34.066Z,100910.78
2023-05-19T06:55:02.289Z,100915.19
2023-05-19T06:57:30.705Z,100916.03
2023-05-19T07:00:00.177Z,100914.22
2023-05-19T07:02:28.421Z,100910.53
2023-05-19T07:04:57.568Z,100916.66
2023-05-19T07:07:26.729Z,100914.69
2023-05-19T07:09:54.813Z,100913.69
2023-05-19T07:12:22.979Z,100907.28
2023-05-19T07:14:51.062Z,100911.72
2023-05-19T07:17:25.747Z,100910.72
2023-05-19T07:19:58.960Z,100910.63
2023-05-19T07:22:27.356Z,100909.63
2023-05-19T07:24:57.093Z,100905.94
2023-05-19T07:27:25.324Z,100905.81
2023-05-19T07:29:53.615Z,100896.69
2023-05-19T07:32:23.264Z,100901.13
2023-05-19T07:34:51.521Z,100892.00
2023-05-19T07:37:19.725Z,100886.47
2023-05-19T07:39:47.905Z,100884.66
2023-05-19T07:42:15.965Z,100886.38
2023-05-19T07:44:44.256Z,100887.09
2023-05-19T07:47:12.424Z,100887.81
2023-05-19T07:49:41.914Z,100883.25
2023-05-19T07:52:10.373Z,100881.41
2023-05-19T07:54:38.797Z,100882.13
2023-05-19T07:57:07.264Z,100884.72
2023-05-19T07:59:35.586Z,100888.16
2023-05-19T08:02:03.756Z,100883.59
2023-05-19T08:04:31.922Z,100886.16
2023-05-19T08:07:01.402Z,100878.91
2023-05-19T08:09:29.982Z,100876.06
2023-05-19T08:11:58.111Z,100878.63
2023-05-19T08:14:27.011Z,100880.34
2023-05-19T08:16:55.066Z,100871.28
2023-05-19T08:19:23.583Z,100864.88
2023-05-19T08:21:51.810Z,100876.41
2023-05-19T08:24:21.261Z,100869.03
2023-05-19T08:26:49.373Z,100871.72
2023-05-19T08:29:17.499Z,100879.69
2023-05-19T08:31:45.632Z,100877.84
2023-05-19T08:34:13.831Z,100875.00
2023-05-19T08:36:41.995Z,100874.06
2023-05-19T08:39:10.111Z,100869.34
2023-05-19T08:41:39.618Z,100869.22
2023-05-19T08:44:07.733Z,100862.81
2023-05-19T08:46:36.864Z,100865.38
2023-05-19T08:49:10.917Z,100862.53
2023-05-19T08:51:45.721Z,100865.09
2023-05-19T08:54:16.277Z,100866.00
2023-05-19T08:56:46.585Z,100870.41
2023-05-19T08:59:15.645Z,100868.41
2023-05-19T09:01:46.422Z,100869.28
2023-05-19T09:04:15.154Z,100866.44
2023-05-19T09:06:45.132Z,100870.84
2023-05-19T09:09:13.515Z,100865.31
2023-05-19T09:11:41.833Z,100861.59
2023-05-19T09:14:11.511Z,100869.59
2023-05-19T09:16:40.457Z,100865.91
2023-05-19T09:19:16.077Z,100867.63
2023-05-19T09:21:45.872Z,100865.78
2023-05-19T09:24:14.164Z,100864.78
2023-05-19T09:26:43.745Z,100872.75
2023-05-19T09:29:14.250Z,100863.63
2023-05-19T09:31:50.208Z,100866.22
2023-05-19T09:34:18.694Z,100863.41
2023-05-19T09:36:49.511Z,100859.69
2023-05-19T09:39:18.978Z,100861.41
2023-05-19T09:41:47.596Z,100863.97
2023-05-19T09:44:23.497Z,100865.69
2023-05-19T09:46:52.852Z,100863.72
2023-05-19T09:49:22.647Z,100865.44
2023-05-19T09:51:52.541Z,100862.59
2023-05-19T09:54:23.097Z,100854.34
2023-05-19T09:56:59.953Z,100857.78
2023-05-19T09:59:33.027Z,100848.66
2023-05-19T10:02:03.345Z,100846.66
2023-05-19T10:04:32.142Z,100849.22
2023-05-19T10:07:00.970Z,100846.38
2023-05-19T10:09:32.000Z,100838.16
2023-05-19T10:12:02.113Z,100836.31
2023-05-19T10:14:31.581Z,100832.47
2023-05-19T10:17:00.612Z,100826.06
2023-05-19T10:19:30.018Z,100826.75
2023-05-19T10:22:01.305Z,100828.47
2023-05-19T10:24:29.596Z,100816.66
2023-05-19T10:27:04.652Z,100816.41
2023-05-19T10:29:38.969Z,100817.09
2023-05-19T10:32:12.700Z,100821.38
2023-05-19T10:35:25.161Z,100817.56
2023-05-19T10:38:00.145Z,100823.69
2023-05-19T10:40:30.379Z,100820.84
2023-05-19T10:43:08.811Z,100808.88
2023-05-19T10:45:47.217Z,100817.69
2023-05-19T10:48:16.293Z,100814.00
2023-05-19T10:50:46.390Z,100814.75
2023-05-19T10:53:19.400Z,100813.75
2023-05-19T10:55:48.668Z,100815.44
2023-05-19T10:58:17.377Z,100800.06
2023-05-19T11:00:46.794Z,100804.31
2023-05-19T11:03:16.004Z,100803.19
2023-05-19T11:05:45.775Z,100798.38
2023-05-19T11:08:15.219Z,100787.25
2023-05-19T11:10:46.038Z,100792.38
2023-05-19T11:13:23.116Z,100783.28
2023-05-19T11:15:53.262Z,100785.84
2023-05-19T11:18:22.114Z,100787.41
2023-05-19T11:20:59.171Z,100791.81
2023-05-19T11:23:27.616Z,100789.81
2023-05-19T11:25:55.666Z,100784.13
2023-05-19T11:28:26.256Z,100782.13
2023-05-19T11:30:59.066Z,100781.84
2023-05-19T11:33:27.812Z,100784.25
2023-05-19T11:35:58.909Z,100781.28
2023-05-19T11:38:28.987Z,100786.41
2023-05-19T11:40:57.671Z,100778.00
2023-05-19T11:43:32.737Z,100767.91
2023-05-19T11:46:04.873Z,100774.75
2023-05-19T11:48:34.081Z,100774.44
2023-05-19T11:51:02.322Z,100777.88
2023-05-19T11:53:33.247Z,100769.47
2023-05-19T11:56:04.883Z,100771.88
2023-05-19T11:58:33.130Z,100775.28
2023-05-19T12:01:06.260Z,100777.03
2023-05-19T12:03:35.731Z,100767.59
2023-05-19T12:06:08.491Z,100768.13
2023-05-19T12:08:37.937Z,100767.03
2023-05-19T12:11:08.521Z,100764.72
2023-05-19T12:13:38.161Z,100767.28
2023-05-19T12:16:09.600Z,100763.56
2023-05-19T12:18:38.481Z,100758.88
2023-05-19T12:21:09.577Z,100758.56
2023-05-19T12:23:41.609Z,100753.69
2023-05-19T12:26:12.810Z,100751.56
2023-05-19T12:28:41.456Z,100739.56
2023-05-19T12:31:12.472Z,100740.97
2023-05-19T12:33:45.987Z,100740.84
2023-05-19T12:36:14.435Z,100739.69
2023-05-19T12:38:42.686Z,100728.69
2023-05-19T12:41:12.440Z,100731.94
2023-05-19T12:43:41.826Z,100732.66
2023-05-19T12:46:16.567Z,100723.22
2023-05-19T12:48:45.381Z,100715.78
2023-05-19T12:51:17.805Z,100717.19
2023-05-19T12:53:46.512Z,100704.34
2023-05-19T12:56:15.882Z,100712.47
2023-05-19T12:58:45.990Z,100714.22
2023-05-19T13:01:20.031Z,100714.91
2023-05-19T13:03:48.588Z,100716.78
2023-05-19T13:06:16.951Z,100712.19
2023-05-19T13:08:45.449Z,100712.91
2023-05-19T13:11:13.529Z,100713.47
2023-05-19T13:13:41.638Z,100701.59
2023-05-19T13:16:09.790Z,100701.44
2023-05-19T13:18:39.756Z,100699.44
2023-05-19T13:21:09.962Z,100701.72
2023-05-19T13:23:38.114Z,100696.81
2023-05-19T13:26:07.877Z,100690.38
2023-05-19T13:28:36.031Z,100685.66
2023-05-19T13:31:05.582Z,100685.66
2023-05-19T13:33:33.658Z,100686.50
2023-05-19T13:36:03.256Z,100688.38
2023-05-19T13:38:31.475Z,100689.09
2023-05-19T13:40:59.606Z,100676.91
2023-05-19T13:43:27.796Z,100671.31
2023-05-19T13:45:55.920Z,100673.72
2023-05-19T13:48:24.140Z,100669.88
2023-05-19T13:50:55.735Z,100674.97
2023-05-19T13:53:26.593Z,100666.53
2023-05-19T13:55:56.629Z,100664.53
2023-05-19T13:58:25.565Z,100664.38
2023-05-19T14:00:56.847Z,100661.66
2023-05-19T14:05:53.191Z,100666.06
2023-05-19T14:08:22.156Z,100663.03
2023-05-19T14:10:52.382Z,100661.88
2023-05-19T14:13:32.711Z,100669.00
2023-05-19T14:16:06.435Z,100662.44
2023-05-19T14:18:34.801Z,100660.56
2023-05-19T14:21:02.952Z,100665.00
2023-05-19T14:23:33.698Z,100658.53
2023-05-19T14:26:03.547Z,100658.53
2023-05-19T14:28:31.677Z,100659.41
2023-05-19T14:30:59.864Z,100657.38
2023-05-19T14:33:28.276Z,100654.50
2023-05-19T14:35:59.941Z,100657.09
2023-05-19T14:38:29.436Z,100654.22
2023-05-19T14:40:58.284Z,100653.88
2023-05-19T14:43:34.937Z,100655.59
2023-05-19T14:46:03.560Z,100656.28
2023-05-19T14:48:31.808Z,100662.44
2023-05-19T14:50:59.892Z,100653.13
2023-05-19T14:53:29.172Z,100654.81
2023-05-19T14:56:00.153Z,100650.97
2023-05-19T14:58:29.906Z,100647.06
2023-05-19T15:00:59.513Z,100641.50
2023-05-19T15:03:27.767Z,100639.47
2023-05-19T15:05:58.554Z,100647.47
2023-05-19T15:08:26.695Z,100641.88
2023-05-19T15:10:54.840Z,100645.28
2023-05-19T15:13:26.470Z,100638.13
2023-05-19T15:16:08.407Z,100640.00
2023-05-19T15:18:43.589Z,100628.97
2023-05-19T15:21:11.851Z,100638.81
2023-05-19T15:23:39.965Z,100637.13
2023-05-19T15:26:08.744Z,100637.84
2023-05-19T15:28:36.958Z,100634.28
2023-05-19T15:31:06.655Z,100642.56
2023-05-19T15:33:36.240Z,100633.56
2023-05-19T15:36:07.528Z,100640.00
2023-05-19T15:38:37.125Z,100635.59
2023-05-19T15:41:08.046Z,100640.16
2023-05-19T15:43:36.285Z,100632.00
2023-05-19T15:46:06.199Z,100641.19
2023-05-19T15:48:34.520Z,100635.75
2023-05-19T15:51:02.879Z,100641.34
2023-05-19T15:53:33.623Z,100640.50
2023-05-19T15:56:03.329Z,100639.63
2023-05-19T15:58:32.827Z,100638.78
2023-05-19T16:01:04.494Z,100630.63
2023-05-19T16:03:34.100Z,100630.63
2023-05-19T16:06:02.213Z,100630.63
2023-05-19T16:08:30.750Z,100634.38
2023-05-19T16:10:59.999Z,100626.22
2023-05-19T16:13:28.314Z,100637.94
2023-05-19T16:15:56.725Z,100640.66
2023-05-19T16:18:24.880Z,100644.34
2023-05-19T16:20:54.406Z,100636.38
2023-05-19T16:23:25.413Z,100645.53
2023-05-19T16:25:54.658Z,100644.69
2023-05-19T16:28:24.862Z,100647.22
2023-05-19T16:30:53.325Z,100645.53
2023-05-19T16:33:21.473Z,100650.97
2023-05-19T16:35:49.897Z,100643.78
2023-05-19T16:38:19.473Z,100643.78
2023-05-19T16:40:50.582Z,100644.81
2023-05-19T16:43:19.852Z,100651.25
2023-05-19T16:45:49.367Z,100644.97
2023-05-19T16:48:19.848Z,100644.97
2023-05-19T16:50:50.428Z,100649.53
2023-05-19T16:53:21.466Z,100643.25
2023-05-19T16:55:49.710Z,100645.13
2023-05-19T16:58:18.127Z,100638.97
2023-05-19T17:00:46.186Z,100641.69
2023-05-19T17:03:14.517Z,100642.69
2023-05-19T17:05:43.528Z,100641.84
2023-05-19T17:08:12.690Z,100643.72
2023-05-19T17:10:42.240Z,100641.00
2023-05-19T17:13:10.586Z,100638.44
2023-05-19T17:15:39.601Z,100643.03
2023-05-19T17:18:10.812Z,100635.88
2023-05-19T17:20:39.158Z,100646.75
2023-05-19T17:23:07.397Z,100647.59
2023-05-19T17:25:35.868Z,100650.47
2023-05-19T17:28:05.586Z,100651.50
2023-05-19T17:30:34.697Z,100657.94
2023-05-19T17:33:03.799Z,100654.50
2023-05-19T17:35:31.941Z,100648.38
2023-05-19T17:38:00.732Z,100652.09
2023-05-19T17:40:31.759Z,100661.25
2023-05-19T17:43:00.135Z,100657.84
2023-05-19T17:45:31.113Z,100663.28
2023-05-19T17:48:00.624Z,100661.75
2023-05-19T17:50:28.845Z,100661.88
2023-05-19T17:52:57.721Z,100663.75
2023-05-19T17:55:29.985Z,100663.03
2023-05-19T17:58:00.358Z,100666.59
2023-05-19T18:00:30.780Z,100665.91
2023-05-19T18:02:59.985Z,100661.50
2023-05-19T18:05:36.028Z,100662.50
2023-05-19T18:08:09.318Z,100663.53
2023-05-19T18:10:39.481Z,100665.38
2023-05-19T18:13:08.475Z,100664.53
2023-05-19T18:15:38.151Z,100661.81
2023-05-19T18:18:08.064Z,100658.22
2023-05-19T18:20:37.900Z,100661.81
2023-05-19T18:23:06.524Z,100660.94
2023-05-19T18:25:34.667Z,100667.25
2023-05-19T18:28:03.133Z,100665.38
2023-05-19T18:30:32.498Z,100667.25
2023-05-19T18:33:03.891Z,100668.94
2023-05-19T18:35:32.249Z,100672.69
2023-05-19T18:38:03.065Z,100671.78
2023-05-19T18:40:31.750Z,100675.38
2023-05-19T18:43:00.070Z,100682.66
2023-05-19T18:45:30.440Z,100680.09
2023-05-19T18:47:59.714Z,100690.97
2023-05-19T18:50:29.380Z,100690.97
2023-05-19T18:52:57.745Z,100683.81
2023-05-19T18:55:25.935Z,100687.53
2023-05-19T18:57:56.856Z,100688.56
2023-05-19T19:00:25.839Z,100689.56
2023-05-19T19:02:56.849Z,100682.44
2023-05-19T19:05:25.337Z,100681.59
2023-05-19T19:07:55.265Z,100690.72
2023-05-19T19:10:23.615Z,100684.44
2023-05-19T19:12:51.837Z,100688.16
2023-05-19T19:15:19.998Z,100692.72
2023-05-19T19:17:51.239Z,100698.31
2023-05-19T19:20:50.614Z,100699.31
2023-05-19T19:23:23.826Z,100708.47
2023-05-19T19:25:56.255Z,100707.63
2023-05-19T19:28:28.040Z,100705.06
2023-05-19T19:30:59.919Z,100706.06
2023-05-19T19:33:32.518Z,100708.78
2023-05-19T19:36:08.342Z,100705.38
2023-05-19T19:38:52.675Z,100713.66
2023-05-19T19:41:28.562Z,100718.22
2023-05-19T19:43:58.406Z,100721.94
2023-05-19T19:46:34.163Z,100722.94
2023-05-19T19:49:02.671Z,100725.81
2023-05-19T19:51:31.553Z,100723.09
2023-05-19T19:54:03.658Z,100725.97
2023-05-19T19:56:31.996Z,100725.13
2023-05-19T19:59:00.235Z,100728.00
2023-05-19T20:01:28.670Z,100731.69
2023-05-19T20:03:57.546Z,100733.53
2023-05-19T20:06:26.264Z,100733.69
2023-05-19T20:08:55.112Z,100732.00
2023-05-19T20:11:27.598Z,100724.88
2023-05-19T20:13:58.449Z,100728.59
2023-05-19T20:16:27.046Z,100726.88
2023-05-19T20:18:59.611Z,100724.31
2023-05-19T20:21:28.116Z,100724.31
2023-05-19T20:23:57.266Z,100727.19
2023-05-19T20:26:27.155Z,100734.44
2023-05-19T20:29:02.182Z,100726.47
2023-05-19T20:31:30.711Z,100735.44
2023-05-19T20:33:59.459Z,100727.47
2023-05-19T20:36:33.388Z,100726.63
2023-05-19T20:39:01.693Z,100725.75
2023-05-19T20:41:32.334Z,100729.47
2023-05-19T20:44:00.546Z,100727.78
2023-05-19T20:46:35.187Z,100727.91
2023-05-19T20:49:04.824Z,100731.47
2023-05-19T20:51:33.154Z,100729.75
2023-05-19T20:54:01.860Z,100732.63
2023-05-19T20:56:32.689Z,100729.03
2023-05-19T20:59:02.258Z,100727.31
2023-05-19T21:01:33.510Z,100722.91
2023-05-19T21:04:06.085Z,100729.19
2023-05-19T21:06:36.483Z,100737.47
2023-05-19T21:09:07.096Z,100735.78
2023-05-19T21:11:35.553Z,100739.50
2023-05-19T21:14:05.221Z,100736.78
2023-05-19T21:16:38.904Z,100722.50
2023-05-19T21:19:07.727Z,100723.53
2023-05-19T21:21:36.362Z,100729.94
2023-05-19T21:24:04.689Z,100721.81
2023-05-19T21:26:35.069Z,100728.22
2023-05-19T21:29:04.649Z,100734.66
2023-05-19T21:31:32.915Z,100729.22
2023-05-19T21:34:01.300Z,100732.94
2023-05-19T21:36:29.406Z,100724.09
2023-05-19T21:38:57.526Z,100730.53
2023-05-19T21:41:26.006Z,100727.81
2023-05-19T21:43:56.461Z,100726.13
2023-05-19T21:46:26.651Z,100727.97
2023-05-19T21:48:57.573Z,100722.72
2023-05-19T21:51:25.800Z,100722.72
2023-05-19T21:53:53.914Z,100724.56
2023-05-19T21:56:24.878Z,100720.13
2023-05-19T21:58:53.027Z,100718.41
2023-05-19T22:01:22.277Z,100721.28
2023-05-19T22:03:52.229Z,100718.56
2023-05-19T22:06:30.894Z,100725.00
2023-05-19T22:09:01.111Z,100720.56
2023-05-19T22:11:32.194Z,100715.31
2023-05-19T22:14:00.273Z,100712.59
2023-05-19T22:16:28.489Z,100701.91
2023-05-19T22:18:58.210Z,100700.19
2023-05-19T22:21:26.456Z,100701.16
2023-05-19T22:23:57.585Z,100693.03
2023-05-19T22:26:26.054Z,100696.75
2023-05-19T22:28:56.995Z,100686.91
2023-05-19T22:31:25.145Z,100683.34
2023-05-19T22:33:54.550Z,100692.47
2023-05-19T22:36:27.174Z,100682.81
2023-05-19T22:38:55.367Z,100681.94
2023-05-19T22:41:23.790Z,100682.81
2023-05-19T22:43:52.004Z,100681.09
2023-05-19T22:46:21.308Z,100684.81
2023-05-19T22:48:50.064Z,100681.38
2023-05-19T22:51:18.496Z,100681.38
2023-05-19T22:53:51.313Z,100684.22
2023-05-19T22:56:19.586Z,100675.25
2023-05-19T22:58:47.721Z,100677.09
2023-05-19T23:01:17.025Z,100668.28
2023-05-19T23:03:45.748Z,100671.84
2023-05-19T23:06:13.889Z,100665.72
2023-05-19T23:08:42.027Z,100656.72
2023-05-19T23:11:13.999Z,100661.41
2023-05-19T23:13:42.135Z,100660.56
2023-05-19T23:16:10.324Z,100669.69
2023-05-19T23:18:38.705Z,100668.00
2023-05-19T23:21:06.988Z,100660.88
2023-05-19T23:23:35.945Z,100668.16
2023-05-19T23:26:04.144Z,100664.59
2023-05-19T23:28:33.863Z,100663.88
2023-05-19T23:31:05.044Z,100666.59
2023-05-19T23:33:33.167Z,100668.47
2023-05-19T23:36:06.866Z,100670.31
2023-05-19T23:38:37.784Z,100668.59
2023-05-19T23:41:08.920Z,100659.75
2023-05-19T23:43:39.091Z,100656.19
2023-05-19T23:46:07.795Z,100651.75
2023-05-19T23:48:37.474Z,100659.03
2023-05-19T23:51:06.291Z,100657.34
2023-05-19T23:53:34.464Z,100648.34
2023-05-19T23:56:02.801Z,100656.63
2023-05-19T23:58:34.210Z,100638.66
